Time;durP1;ratioP1;P1;durP2;ratioP2;P2;SDS_P1;SDS_P2;PMS_P1;PMS_P2;Temp;Humidity;BMP_temperature;BMP_pressure;BME280_temperature;BME280_humidity;BME280_pressure;Samples;Min_cycle;Max_cycle;Signal;HPM_P1;HPM_P2
2023/07/29 00:00:19;;;;;;;13.90;13.27;;;18.90;1.00;;;;;;4963405;28;20478;-85
2023/07/29 00:02:47;;;;;;;13.47;13.10;;;18.90;1.00;;;;;;4966879;28;20471;-84
2023/07/29 00:05:16;;;;;;;13.67;13.27;;;18.90;1.00;;;;;;4967444;28;21196;-84
2023/07/29 00:07:46;;;;;;;13.77;13.37;;;18.90;1.00;;;;;;4967230;28;20452;-83
2023/07/29 00:10:14;;;;;;;13.53;13.03;;;18.80;1.00;;;;;;4968045;28;20466;-84
2023/07/29 00:12:42;;;;;;;14.13;13.60;;;18.80;1.00;;;;;;4969422;28;20471;-83
2023/07/29 00:15:11;;;;;;;13.23;12.83;;;18.80;1.00;;;;;;4969842;28;20517;-84
2023/07/29 00:17:39;;;;;;;14.20;13.70;;;18.80;1.00;;;;;;4970751;28;21056;-86
2023/07/29 00:20:08;;;;;;;13.67;13.27;;;18.80;1.00;;;;;;4967833;28;21354;-83
2023/07/29 00:22:36;;;;;;;13.90;13.50;;;18.80;1.00;;;;;;4969458;28;20475;-85
2023/07/29 00:25:07;;;;;;;13.90;13.50;;;18.90;1.00;;;;;;4967272;28;20844;-83
2023/07/29 00:27:35;;;;;;;14.83;13.93;;;18.90;1.00;;;;;;4969670;28;20495;-82
2023/07/29 00:30:04;;;;;;;14.20;13.80;;;18.90;1.00;;;;;;4967347;28;20494;-85
2023/07/29 00:32:32;;;;;;;13.70;13.30;;;18.90;1.00;;;;;;4968198;28;20543;-85
2023/07/29 00:35:01;;;;;;;13.90;13.50;;;18.90;1.00;;;;;;4966666;28;20461;-84
2023/07/29 00:37:29;;;;;;;13.90;13.50;;;18.90;1.00;;;;;;4964983;28;21026;-86
2023/07/29 00:39:58;;;;;;;14.00;13.60;;;18.90;1.00;;;;;;4966392;28;21030;-84
2023/07/29 00:42:27;;;;;;;14.00;13.60;;;18.90;1.00;;;;;;4965817;28;21895;-85
2023/07/29 00:44:56;;;;;;;13.47;13.17;;;18.90;1.00;;;;;;4968870;28;21077;-85
2023/07/29 00:47:26;;;;;;;14.50;13.93;;;18.80;1.00;;;;;;4968370;28;20538;-84
2023/07/29 00:49:54;;;;;;;13.60;13.20;;;18.70;4.50;;;;;;4967101;28;20529;-85
2023/07/29 00:52:23;;;;;;;13.80;13.40;;;18.80;3.10;;;;;;4969610;28;20850;-85
2023/07/29 00:54:51;;;;;;;13.60;13.20;;;18.80;1.00;;;;;;4969661;28;20470;-83
2023/07/29 00:57:21;;;;;;;14.53;14.03;;;18.80;1.00;;;;;;4970506;28;20457;-85
2023/07/29 00:59:51;;;;;;;13.20;12.90;;;18.90;1.00;;;;;;4968986;28;20479;-85
2023/07/29 01:02:19;;;;;;;13.47;13.07;;;18.90;1.00;;;;;;4966184;28;21204;-84
2023/07/29 01:04:53;;;;;;;13.50;13.10;;;18.90;1.00;;;;;;4968495;28;20478;-85
2023/07/29 01:07:28;;;;;;;13.70;13.30;;;18.90;1.00;;;;;;4966736;28;20466;-85
2023/07/29 01:10:01;;;;;;;13.47;13.07;;;18.90;1.00;;;;;;4966683;28;20470;-84
2023/07/29 01:12:37;;;;;;;13.90;13.50;;;18.80;1.00;;;;;;4968301;28;20507;-85
2023/07/29 01:15:13;;;;;;;13.50;13.10;;;18.80;1.00;;;;;;4962503;28;20455;-86
2023/07/29 01:17:47;;;;;;;13.33;13.03;;;18.80;1.00;;;;;;4947038;28;20486;-82
2023/07/29 01:20:17;;;;;;;13.77;13.27;;;18.80;1.00;;;;;;4965980;28;20494;-82
2023/07/29 01:22:45;;;;;;;13.77;13.30;;;18.80;1.00;;;;;;4944368;28;20582;-84
2023/07/29 01:25:15;;;;;;;13.67;13.17;;;18.80;1.00;;;;;;4966506;28;20463;-85
2023/07/29 01:27:44;;;;;;;13.60;13.10;;;18.80;1.00;;;;;;4967706;28;20461;-85
2023/07/29 01:30:13;;;;;;;13.77;13.27;;;18.80;1.00;;;;;;4964762;28;20512;-87
2023/07/29 01:32:55;;;;;;;13.73;13.30;;;18.80;1.00;;;;;;4965138;28;20471;-85
2023/07/29 01:35:29;;;;;;;13.77;13.37;;;18.80;1.00;;;;;;4967226;28;20463;-85
2023/07/29 01:38:04;;;;;;;13.60;13.20;;;18.80;1.00;;;;;;4967130;28;20451;-83
2023/07/29 01:40:34;;;;;;;13.70;13.30;;;18.80;1.00;;;;;;4948206;28;20471;-82
2023/07/29 01:43:03;;;;;;;13.80;13.30;;;18.80;1.00;;;;;;4970912;28;20475;-84
2023/07/29 01:45:35;;;;;;;13.63;13.23;;;18.80;1.00;;;;;;4966755;28;20459;-83
2023/07/29 01:48:03;;;;;;;13.60;13.20;;;18.80;1.00;;;;;;4967169;28;20534;-82
2023/07/29 01:50:32;;;;;;;13.57;13.07;;;18.80;1.00;;;;;;4967848;28;20477;-84
2023/07/29 01:53:00;;;;;;;14.20;13.60;;;18.80;1.00;;;;;;4966966;28;20486;-85
2023/07/29 01:55:28;;;;;;;13.17;12.77;;;18.70;1.00;;;;;;4948548;28;20455;-82
2023/07/29 01:57:58;;;;;;;13.50;13.10;;;18.70;1.00;;;;;;4969635;28;20522;-84
2023/07/29 02:00:26;;;;;;;13.60;13.20;;;18.70;1.00;;;;;;4964873;28;20557;-84
2023/07/29 02:02:54;;;;;;;13.87;13.47;;;18.80;1.00;;;;;;4964529;28;20557;-83
2023/07/29 02:05:22;;;;;;;13.80;13.40;;;18.70;1.00;;;;;;4963620;28;20682;-84
2023/07/29 02:07:50;;;;;;;13.83;13.43;;;18.80;1.00;;;;;;4965960;28;20462;-82
2023/07/29 02:10:19;;;;;;;13.93;13.53;;;18.80;1.00;;;;;;4945701;28;20451;-84
2023/07/29 02:12:47;;;;;;;14.20;13.60;;;18.70;1.00;;;;;;4969225;28;20479;-82
2023/07/29 02:15:16;;;;;;;13.77;13.37;;;18.70;1.00;;;;;;4966012;28;20479;-84
2023/07/29 02:17:44;;;;;;;14.80;14.30;;;18.70;1.00;;;;;;4962430;28;20460;-86
2023/07/29 02:20:13;;;;;;;14.03;13.53;;;18.80;1.00;;;;;;4961729;28;20479;-83
2023/07/29 02:22:41;;;;;;;13.93;13.53;;;18.70;1.00;;;;;;4966417;28;20582;-85
2023/07/29 02:25:10;;;;;;;14.20;13.70;;;18.70;1.00;;;;;;4941450;28;20561;-80
2023/07/29 02:27:38;;;;;;;14.43;13.80;;;18.70;1.00;;;;;;4967277;28;20463;-84
2023/07/29 02:30:09;;;;;;;14.27;13.63;;;18.80;1.00;;;;;;4966951;28;21090;-83
2023/07/29 02:32:39;;;;;;;14.43;13.93;;;18.80;1.00;;;;;;4968341;28;20511;-84
2023/07/29 02:35:08;;;;;;;13.97;13.57;;;18.70;1.00;;;;;;4968604;28;20483;-84
2023/07/29 02:37:36;;;;;;;14.27;13.87;;;18.80;1.00;;;;;;4962957;28;20594;-84
2023/07/29 02:40:05;;;;;;;14.37;13.90;;;18.80;1.00;;;;;;4967799;28;20459;-83
2023/07/29 02:42:34;;;;;;;14.10;13.63;;;18.80;1.00;;;;;;4963271;28;20877;-84
2023/07/29 02:45:02;;;;;;;14.33;13.83;;;18.80;1.00;;;;;;4968181;28;20546;-84
2023/07/29 02:47:30;;;;;;;13.83;13.43;;;18.80;1.00;;;;;;4965163;28;21026;-84
2023/07/29 02:50:00;;;;;;;14.13;13.63;;;18.70;1.00;;;;;;4964981;28;21700;-84
2023/07/29 02:52:28;;;;;;;14.30;13.70;;;18.70;1.00;;;;;;4965238;28;20510;-85
2023/07/29 02:54:56;;;;;;;13.80;13.40;;;18.70;1.00;;;;;;4966025;28;20451;-84
2023/07/29 02:57:24;;;;;;;14.10;13.70;;;18.70;1.00;;;;;;4949654;28;20473;-85
2023/07/29 02:59:52;;;;;;;14.70;14.20;;;18.70;1.00;;;;;;4965627;28;20479;-83
2023/07/29 03:02:20;;;;;;;14.53;14.07;;;18.70;1.00;;;;;;4965215;28;20494;-84
2023/07/29 03:04:49;;;;;;;14.07;13.67;;;18.70;1.00;;;;;;4964114;28;20469;-84
2023/07/29 03:07:20;;;;;;;14.27;13.77;;;18.70;1.00;;;;;;4965795;28;20455;-85
2023/07/29 03:09:48;;;;;;;13.93;13.53;;;18.70;1.00;;;;;;4968052;28;20459;-86
2023/07/29 03:12:16;;;;;;;14.37;13.90;;;18.70;1.00;;;;;;4966306;28;20497;-85
2023/07/29 03:14:44;;;;;;;15.20;14.40;;;18.70;1.00;;;;;;4947281;28;20463;-85
2023/07/29 03:17:12;;;;;;;14.27;13.80;;;18.70;1.00;;;;;;4961767;28;20466;-86
2023/07/29 03:19:40;;;;;;;14.60;14.10;;;18.70;1.00;;;;;;4963064;28;20840;-83
2023/07/29 03:22:08;;;;;;;14.83;14.33;;;18.70;1.00;;;;;;4970050;28;20490;-83
2023/07/29 03:24:38;;;;;;;14.20;13.70;;;18.70;1.00;;;;;;4971524;28;20510;-82
2023/07/29 03:27:06;;;;;;;14.90;14.20;;;18.70;1.00;;;;;;4969108;28;20522;-84
2023/07/29 03:29:35;;;;;;;14.67;14.10;;;18.70;1.00;;;;;;4971480;28;20454;-83
2023/07/29 03:32:03;;;;;;;14.40;14.00;;;18.70;1.00;;;;;;4966577;28;20482;-84
2023/07/29 03:34:31;;;;;;;14.10;13.70;;;18.70;1.00;;;;;;4967288;28;20463;-83
2023/07/29 03:37:00;;;;;;;14.70;14.20;;;18.70;1.00;;;;;;4969125;28;20442;-82
2023/07/29 03:39:28;;;;;;;14.60;14.10;;;18.60;1.00;;;;;;4969625;28;20553;-83
2023/07/29 03:41:58;;;;;;;14.90;14.30;;;18.60;1.00;;;;;;4968257;28;20891;-85
2023/07/29 03:44:26;;;;;;;14.90;14.40;;;18.70;1.00;;;;;;4967760;28;20473;-83
2023/07/29 03:46:54;;;;;;;14.83;14.13;;;18.70;1.00;;;;;;4966434;28;20550;-85
2023/07/29 03:49:23;;;;;;;14.60;14.10;;;18.70;1.00;;;;;;4970273;28;20463;-86
2023/07/29 03:51:51;;;;;;;14.40;13.97;;;18.70;1.00;;;;;;4965985;28;20842;-84
2023/07/29 03:54:19;;;;;;;14.77;14.27;;;18.70;1.00;;;;;;4968622;28;20471;-82
2023/07/29 03:56:47;;;;;;;14.57;14.07;;;18.70;1.00;;;;;;4969186;28;20477;-84
2023/07/29 03:59:16;;;;;;;14.57;14.00;;;18.70;1.00;;;;;;4968490;28;20491;-83
2023/07/29 04:01:45;;;;;;;14.83;14.33;;;18.70;1.00;;;;;;4966008;28;20506;-82
2023/07/29 04:04:13;;;;;;;14.47;14.00;;;18.70;1.00;;;;;;4965294;28;20494;-84
2023/07/29 04:06:41;;;;;;;15.00;14.40;;;18.70;1.00;;;;;;4971005;28;20555;-84
2023/07/29 04:09:10;;;;;;;14.67;14.20;;;18.70;1.00;;;;;;4968513;28;20988;-84
2023/07/29 04:11:38;;;;;;;15.00;14.50;;;18.70;1.00;;;;;;4968075;28;20479;-83
2023/07/29 04:14:06;;;;;;;15.27;14.57;;;18.70;1.00;;;;;;4969568;28;20964;-84
2023/07/29 04:16:35;;;;;;;15.00;14.43;;;18.70;1.00;;;;;;4968162;28;20474;-84
2023/07/29 04:19:04;;;;;;;14.77;14.17;;;18.80;1.00;;;;;;4970156;28;20459;-84
2023/07/29 04:21:32;;;;;;;14.90;14.27;;;18.70;1.00;;;;;;4945000;28;20526;-82
2023/07/29 04:24:01;;;;;;;14.77;14.27;;;18.70;1.00;;;;;;4968211;28;21134;-83
2023/07/29 04:26:29;;;;;;;14.60;14.10;;;18.70;1.00;;;;;;4968219;28;20494;-84
2023/07/29 04:28:58;;;;;;;14.67;14.20;;;18.80;3.00;;;;;;4967854;28;20464;-81
2023/07/29 04:31:26;;;;;;;15.37;14.70;;;18.70;3.70;;;;;;4968914;28;20475;-83
2023/07/29 04:33:56;;;;;;;14.90;14.30;;;18.70;3.20;;;;;;4968150;28;20467;-83
2023/07/29 04:36:24;;;;;;;15.63;14.90;;;18.70;9.50;;;;;;4967515;28;20451;-83
2023/07/29 04:38:52;;;;;;;15.17;14.50;;;18.70;6.30;;;;;;4967613;28;20509;-84
2023/07/29 04:41:20;;;;;;;14.33;13.77;;;18.70;5.10;;;;;;4968765;28;20489;-82
2023/07/29 04:43:49;;;;;;;15.53;14.83;;;18.70;11.90;;;;;;4968840;28;20562;-82
2023/07/29 04:46:17;;;;;;;15.30;14.80;;;18.70;9.50;;;;;;4964079;28;20455;-83
2023/07/29 04:48:45;;;;;;;15.10;14.43;;;18.70;11.60;;;;;;4959293;28;20545;-84
2023/07/29 04:51:15;;;;;;;15.23;14.70;;;18.70;20.00;;;;;;4964426;28;20454;-84
2023/07/29 04:53:43;;;;;;;15.30;14.60;;;18.70;19.10;;;;;;4962869;28;20545;-84
2023/07/29 04:56:12;;;;;;;15.10;14.57;;;18.70;18.30;;;;;;4964314;28;20542;-83
2023/07/29 04:58:42;;;;;;;15.30;14.70;;;18.70;22.00;;;;;;4965860;28;20976;-83
2023/07/29 05:01:10;;;;;;;15.37;14.73;;;18.60;21.90;;;;;;4968298;28;20845;-85
2023/07/29 05:03:39;;;;;;;15.30;14.70;;;18.70;26.00;;;;;;4965319;28;20860;-85
2023/07/29 05:06:08;;;;;;;15.80;15.20;;;18.60;30.50;;;;;;4962980;28;20468;-85
2023/07/29 05:08:38;;;;;;;15.47;14.97;;;18.60;36.80;;;;;;4964226;28;21415;-84
2023/07/29 05:11:06;;;;;;;15.63;15.03;;;18.60;39.30;;;;;;4967475;28;20447;-83
2023/07/29 05:13:34;;;;;;;15.70;15.00;;;18.60;42.20;;;;;;4962682;28;20827;-84
2023/07/29 05:16:02;;;;;;;15.60;14.90;;;18.70;38.90;;;;;;4965075;28;20459;-80
2023/07/29 05:18:30;;;;;;;15.70;15.10;;;18.70;41.70;;;;;;4962329;28;20463;-83
2023/07/29 05:20:58;;;;;;;15.30;14.63;;;18.60;47.50;;;;;;4966795;28;20586;-84
2023/07/29 05:23:26;;;;;;;15.33;14.70;;;18.60;48.80;;;;;;4965652;28;20502;-84
2023/07/29 05:25:56;;;;;;;15.33;14.73;;;18.60;54.40;;;;;;4968161;28;20534;-82
2023/07/29 05:28:24;;;;;;;15.07;14.57;;;18.60;58.80;;;;;;4966700;28;20451;-85
2023/07/29 05:30:53;;;;;;;14.80;14.20;;;18.60;59.40;;;;;;4968885;28;20451;-86
2023/07/29 05:33:21;;;;;;;14.93;14.43;;;18.70;68.90;;;;;;4964208;28;20478;-85
2023/07/29 05:35:49;;;;;;;15.60;15.10;;;18.70;75.90;;;;;;4967327;28;20546;-85
2023/07/29 05:38:18;;;;;;;15.20;14.67;;;18.70;78.50;;;;;;4967140;28;20447;-85
2023/07/29 05:40:46;;;;;;;15.90;15.10;;;18.80;75.20;;;;;;4970307;28;20472;-85
2023/07/29 05:43:15;;;;;;;14.90;14.30;;;18.80;75.90;;;;;;4954796;28;21197;-83
2023/07/29 05:45:44;;;;;;;15.20;14.63;;;18.80;78.60;;;;;;4968531;28;20486;-84
2023/07/29 05:48:12;;;;;;;15.43;14.83;;;18.80;83.70;;;;;;4971021;28;20498;-84
2023/07/29 05:50:40;;;;;;;15.63;15.13;;;18.80;87.30;;;;;;4968474;28;20463;-83
2023/07/29 05:53:08;;;;;;;15.80;15.30;;;18.80;91.90;;;;;;4967397;28;20850;-83
2023/07/29 05:55:36;;;;;;;15.50;14.90;;;18.80;90.70;;;;;;4968455;28;21715;-84
2023/07/29 05:58:04;;;;;;;14.63;14.13;;;18.90;92.90;;;;;;4970348;28;20467;-85
2023/07/29 06:00:34;;;;;;;15.20;14.60;;;18.90;93.40;;;;;;4970485;28;20475;-85
2023/07/29 06:03:02;;;;;;;14.80;14.40;;;19.00;92.40;;;;;;4957562;28;20562;-85
2023/07/29 06:05:31;;;;;;;15.00;14.50;;;19.00;89.00;;;;;;4966257;28;20514;-84
2023/07/29 06:07:59;;;;;;;15.40;14.90;;;19.00;89.20;;;;;;4962569;28;20459;-84
2023/07/29 06:10:27;;;;;;;15.30;14.70;;;19.00;90.30;;;;;;4968285;28;20462;-86
2023/07/29 06:12:55;;;;;;;15.57;14.97;;;18.90;93.40;;;;;;4968823;28;20486;-86
2023/07/29 06:15:23;;;;;;;15.10;14.60;;;19.00;96.00;;;;;;4968569;28;20471;-85
2023/07/29 06:17:53;;;;;;;14.90;14.43;;;19.00;99.20;;;;;;4964523;28;20474;-85
2023/07/29 06:20:24;;;;;;;15.80;15.20;;;19.00;98.40;;;;;;4968535;28;20828;-85
2023/07/29 06:22:52;;;;;;;15.57;14.97;;;19.10;99.40;;;;;;4967789;28;20541;-85
2023/07/29 06:25:22;;;;;;;15.40;14.63;;;19.10;95.60;;;;;;4965146;28;20513;-85
2023/07/29 06:27:50;;;;;;;14.87;14.37;;;19.20;94.70;;;;;;4955779;28;20837;-84
2023/07/29 06:30:19;;;;;;;15.00;14.40;;;19.20;92.70;;;;;;4966473;28;20494;-86
2023/07/29 06:32:47;;;;;;;15.20;14.70;;;19.20;91.80;;;;;;4944376;28;20480;-84
2023/07/29 06:35:17;;;;;;;15.30;14.80;;;19.20;91.40;;;;;;4964564;28;20467;-84
2023/07/29 06:37:45;;;;;;;16.07;15.37;;;19.20;84.60;;;;;;4968007;28;20447;-86
2023/07/29 06:40:13;;;;;;;15.67;14.97;;;19.10;85.30;;;;;;4967312;28;20491;-84
2023/07/29 06:42:41;;;;;;;15.23;14.73;;;19.10;84.90;;;;;;4964429;28;20498;-87
2023/07/29 06:45:11;;;;;;;15.40;14.87;;;19.10;76.90;;;;;;4953648;28;20522;-87
2023/07/29 06:47:40;;;;;;;15.33;14.77;;;19.10;84.00;;;;;;4964784;28;21201;-88
2023/07/29 06:50:09;;;;;;;15.13;14.63;;;19.10;81.10;;;;;;4943381;28;20526;-79
2023/07/29 06:52:40;;;;;;;14.80;14.40;;;19.10;89.10;;;;;;4961544;28;20483;-76
2023/07/29 06:55:09;;;;;;;15.63;15.00;;;19.10;87.70;;;;;;4961292;28;21082;-75
2023/07/29 06:57:37;;;;;;;15.73;15.03;;;19.20;77.90;;;;;;4967262;28;21200;-74
2023/07/29 07:00:07;;;;;;;15.40;14.90;;;19.20;77.40;;;;;;4965232;28;20465;-78
2023/07/29 07:02:35;;;;;;;15.37;14.83;;;19.30;69.50;;;;;;4965006;28;21059;-77
2023/07/29 07:05:04;;;;;;;14.57;14.17;;;19.20;90.00;;;;;;4968391;28;20706;-77
2023/07/29 07:07:32;;;;;;;15.90;15.30;;;19.10;92.60;;;;;;4968851;28;20451;-76
2023/07/29 07:10:02;;;;;;;15.17;14.67;;;19.10;92.40;;;;;;4966454;28;20965;-77
2023/07/29 07:12:30;;;;;;;14.93;14.43;;;19.10;94.10;;;;;;4967207;28;20482;-79
2023/07/29 07:14:58;;;;;;;15.20;14.70;;;19.10;94.90;;;;;;4965027;28;21096;-78
2023/07/29 07:17:26;;;;;;;15.03;14.53;;;19.10;92.80;;;;;;4962928;28;20474;-78
2023/07/29 07:19:54;;;;;;;15.10;14.60;;;19.00;92.50;;;;;;4965859;28;20491;-78
2023/07/29 07:22:23;;;;;;;15.40;14.80;;;19.00;90.20;;;;;;4966140;28;20493;-79
2023/07/29 07:24:52;;;;;;;14.80;14.40;;;18.90;90.80;;;;;;4965228;28;20510;-79
2023/07/29 07:27:21;;;;;;;15.20;14.60;;;19.00;84.00;;;;;;4968875;28;20784;-78
2023/07/29 07:29:49;;;;;;;15.03;14.53;;;19.00;84.00;;;;;;4968834;28;20874;-82
2023/07/29 07:32:17;;;;;;;14.87;14.33;;;19.00;79.50;;;;;;4962400;28;20791;-81
2023/07/29 07:34:46;;;;;;;15.10;14.40;;;19.00;87.00;;;;;;4962293;28;20713;-79
2023/07/29 07:37:14;;;;;;;15.17;14.60;;;19.10;88.90;;;;;;4966447;28;21051;-82
2023/07/29 07:39:42;;;;;;;15.00;14.50;;;19.20;89.50;;;;;;4969833;28;20465;-81
2023/07/29 07:42:10;;;;;;;15.10;14.60;;;19.20;84.10;;;;;;4944823;28;20947;-79
2023/07/29 07:44:40;;;;;;;14.60;14.20;;;19.20;90.00;;;;;;4960407;28;20510;-79
2023/07/29 07:47:08;;;;;;;14.70;14.20;;;19.20;82.20;;;;;;4962415;28;20964;-84
2023/07/29 07:49:36;;;;;;;15.33;14.70;;;19.20;91.10;;;;;;4961832;28;20914;-79
2023/07/29 07:52:05;;;;;;;14.60;14.10;;;19.30;89.50;;;;;;4963798;28;21035;-82
2023/07/29 07:54:33;;;;;;;14.97;14.43;;;19.30;92.40;;;;;;4965000;28;20459;-82
2023/07/29 07:57:01;;;;;;;14.77;14.27;;;19.30;84.20;;;;;;4961977;28;20453;-80
2023/07/29 07:59:30;;;;;;;14.20;13.80;;;19.40;82.50;;;;;;4968130;28;20459;-81
2023/07/29 08:01:59;;;;;;;14.60;14.20;;;19.40;65.10;;;;;;4966094;28;20487;-82
2023/07/29 08:04:27;;;;;;;15.00;14.30;;;19.40;52.40;;;;;;4967305;28;20482;-83
2023/07/29 08:06:55;;;;;;;14.30;13.90;;;19.40;58.50;;;;;;4966240;28;20470;-82
2023/07/29 08:09:24;;;;;;;14.93;14.30;;;19.50;50.90;;;;;;4964265;28;20546;-79
2023/07/29 08:11:52;;;;;;;14.80;14.30;;;19.50;53.80;;;;;;4964688;28;20482;-81
2023/07/29 08:14:20;;;;;;;14.67;14.17;;;19.60;37.40;;;;;;4967913;28;20467;-82
2023/07/29 08:16:48;;;;;;;14.40;14.00;;;19.60;48.50;;;;;;4965309;28;20455;-83
2023/07/29 08:19:17;;;;;;;14.27;13.80;;;19.60;33.00;;;;;;4965226;28;20518;-79
2023/07/29 08:21:49;;;;;;;14.93;14.50;;;19.60;35.70;;;;;;4967103;28;20485;-80
2023/07/29 08:24:17;;;;;;;14.97;14.47;;;19.70;42.20;;;;;;4965560;28;20468;-82
2023/07/29 08:26:45;;;;;;;14.90;14.40;;;19.80;36.60;;;;;;4966861;28;20459;-85
2023/07/29 08:32:44;;;;;;;16.17;15.67;;;20.00;22.90;;;;;;4994718;23;20533;-82
2023/07/29 08:39:48;;;;;;;16.50;15.90;;;20.20;28.20;;;;;;4989867;28;20483;-84
2023/07/29 08:42:20;;;;;;;16.27;15.73;;;20.30;8.20;;;;;;4998811;28;20461;-84
2023/07/29 08:44:50;;;;;;;16.00;15.53;;;20.30;18.00;;;;;;5004995;28;20508;-83
2023/07/29 08:47:19;;;;;;;15.83;15.23;;;20.40;22.90;;;;;;4996150;28;20465;-86
2023/07/29 08:49:48;;;;;;;16.30;15.73;;;20.40;11.00;;;;;;5003886;28;20463;-85
2023/07/29 08:52:17;;;;;;;16.57;16.00;;;20.40;22.70;;;;;;5001565;28;20609;-84
2023/07/29 08:54:48;;;;;;;16.33;15.83;;;20.30;2.40;;;;;;4993253;28;20536;-83
2023/07/29 08:57:16;;;;;;;16.60;16.00;;;20.40;7.40;;;;;;4998789;28;20509;-81
2023/07/29 08:59:45;;;;;;;16.77;16.17;;;20.50;12.90;;;;;;5002280;28;20468;-83
2023/07/29 09:02:13;;;;;;;16.70;16.10;;;20.40;9.80;;;;;;5004067;28;20477;-82
2023/07/29 09:04:41;;;;;;;16.57;16.07;;;20.50;18.00;;;;;;5003316;28;20477;-83
2023/07/29 09:07:11;;;;;;;16.90;16.40;;;20.50;7.40;;;;;;5005416;28;20549;-82
2023/07/29 09:09:39;;;;;;;16.67;16.17;;;20.50;7.20;;;;;;5004580;28;20512;-83
2023/07/29 09:12:11;;;;;;;16.70;16.20;;;20.50;1.60;;;;;;5004357;28;20847;-83
2023/07/29 09:14:39;;;;;;;16.10;15.60;;;20.60;2.60;;;;;;5003594;28;20540;-82
2023/07/29 09:17:09;;;;;;;16.23;15.73;;;20.70;1.00;;;;;;5001508;28;20480;-84
2023/07/29 09:19:40;;;;;;;16.70;16.10;;;20.80;1.00;;;;;;5002598;28;21076;-83
2023/07/29 09:22:18;;;;;;;16.80;16.30;;;20.80;1.00;;;;;;5005276;28;21002;-84
2023/07/29 09:24:47;;;;;;;17.17;16.57;;;21.00;1.00;;;;;;5002369;28;20489;-82
2023/07/29 09:27:26;;;;;;;17.80;17.10;;;21.00;1.00;;;;;;5000619;28;20457;-81
2023/07/29 09:29:56;;;;;;;17.20;16.60;;;21.10;1.00;;;;;;5003983;28;20457;-84
2023/07/29 09:32:26;;;;;;;17.10;16.50;;;21.10;1.00;;;;;;4996177;28;20573;-83
2023/07/29 09:34:55;;;;;;;17.17;16.57;;;21.20;1.00;;;;;;5016746;28;20994;-81
2023/07/29 09:37:24;;;;;;;17.40;16.80;;;21.20;1.00;;;;;;5001858;28;20453;-84
2023/07/29 09:39:52;;;;;;;17.10;16.50;;;21.20;1.00;;;;;;5000298;28;20697;-83
2023/07/29 09:42:21;;;;;;;16.80;16.20;;;21.20;1.00;;;;;;5005222;28;20474;-82
2023/07/29 09:44:53;;;;;;;17.27;16.60;;;21.30;1.00;;;;;;5001209;28;20481;-82
2023/07/29 09:47:22;;;;;;;16.83;16.33;;;21.30;1.00;;;;;;4998291;28;20975;-82
2023/07/29 09:49:51;;;;;;;17.53;16.93;;;21.40;1.00;;;;;;5001503;28;20669;-85
2023/07/29 09:52:20;;;;;;;17.23;16.73;;;21.50;1.00;;;;;;4992803;28;20499;-83
2023/07/29 09:54:49;;;;;;;16.80;16.20;;;21.50;1.00;;;;;;4994194;28;21009;-85
2023/07/29 09:57:19;;;;;;;17.07;16.47;;;21.50;1.00;;;;;;4997278;28;20455;-83
2023/07/29 09:59:56;;;;;;;17.60;17.00;;;21.60;1.00;;;;;;5002518;28;20459;-84
2023/07/29 10:05:22;;;;;;;17.53;16.93;;;21.90;99.90;;;;;;5103252;23;20504;-83
2023/07/29 10:08:09;;;;;;;17.37;16.77;;;22.00;1.00;;;;;;5003834;28;20501;-83
2023/07/29 10:10:37;;;;;;;17.80;17.10;;;22.00;99.90;;;;;;4995370;28;20467;-84
2023/07/29 10:13:33;;;;;;;18.53;17.83;;;22.10;81.30;;;;;;4987109;28;20563;-85
2023/07/29 10:20:08;;;;;;;18.63;17.87;;;22.40;99.90;;;;;;4945910;28;20472;-80
2023/07/29 10:26:26;;;;;;;18.77;18.07;;;22.40;1.00;;;;;;4966163;28;20521;-87
2023/07/29 10:29:42;;;;;;;18.77;18.10;;;22.40;1.00;;;;;;4986278;28;21026;-84
2023/07/29 10:41:05;;;;;;;18.23;17.63;;;22.60;99.90;;;;;;4985187;28;20421;-85
2023/07/29 10:43:35;;;;;;;18.20;17.53;;;22.80;1.00;;;;;;4978690;28;20485;-84
2023/07/29 10:46:17;;;;;;;17.67;17.07;;;22.80;1.00;;;;;;4971442;28;20481;-83
2023/07/29 10:48:53;;;;;;;17.73;17.10;;;22.80;73.40;;;;;;4976737;28;21035;-83
2023/07/29 10:51:35;;;;;;;17.37;16.70;;;22.70;99.90;;;;;;4974952;28;20573;-84
2023/07/29 10:54:05;;;;;;;17.90;17.30;;;22.80;99.90;;;;;;4963760;28;20556;-84
2023/07/29 10:56:41;;;;;;;17.87;17.27;;;22.90;99.90;;;;;;4966874;28;20450;-84
2023/07/29 10:59:33;;;;;;;17.87;17.27;;;23.00;99.90;;;;;;4976305;28;20478;-83
2023/07/29 11:02:02;;;;;;;18.33;17.43;;;23.10;99.90;;;;;;4965205;28;20496;-84
2023/07/29 11:04:31;;;;;;;17.30;16.70;;;23.10;99.90;;;;;;4980806;28;20975;-84
2023/07/29 11:07:27;;;;;;;18.07;17.43;;;23.10;99.90;;;;;;4979381;28;20560;-84
2023/07/29 11:10:07;;;;;;;17.30;16.70;;;23.20;99.90;;;;;;4956837;28;20464;-85
2023/07/29 11:12:37;;;;;;;17.87;17.27;;;23.20;99.90;;;;;;4979708;28;20575;-84
2023/07/29 11:15:26;;;;;;;17.90;17.30;;;23.20;19.70;;;;;;4979845;28;20482;-84
2023/07/29 11:17:56;;;;;;;17.13;16.63;;;23.10;99.90;;;;;;4984185;28;20541;-84
2023/07/29 11:20:30;;;;;;;17.53;16.97;;;23.20;62.70;;;;;;4983899;28;20482;-83
2023/07/29 11:23:04;;;;;;;17.40;16.80;;;23.30;1.00;;;;;;4967954;28;21180;-84
2023/07/29 11:25:35;;;;;;;17.90;17.30;;;23.30;3.10;;;;;;4982673;28;20538;-85
2023/07/29 11:28:05;;;;;;;17.43;16.93;;;23.30;29.50;;;;;;4986628;28;21016;-85
2023/07/29 11:30:55;;;;;;;18.03;17.33;;;23.30;1.00;;;;;;4987582;28;20478;-84
2023/07/29 11:33:25;;;;;;;17.97;17.27;;;23.30;1.00;;;;;;4984753;28;20476;-84
2023/07/29 11:35:54;;;;;;;17.80;17.20;;;23.30;1.00;;;;;;4964280;28;20460;-85
2023/07/29 11:38:24;;;;;;;17.53;16.93;;;23.30;1.00;;;;;;4975733;28;20548;-84
2023/07/29 11:41:14;;;;;;;17.23;16.63;;;23.30;1.00;;;;;;4984247;28;20465;-85
2023/07/29 11:43:45;;;;;;;17.07;16.53;;;23.40;1.00;;;;;;4986729;28;21061;-84
2023/07/29 11:46:15;;;;;;;16.90;16.30;;;23.50;1.00;;;;;;4984503;28;20486;-83
2023/07/29 11:48:49;;;;;;;17.00;16.50;;;23.50;99.90;;;;;;4989618;28;20477;-85
2023/07/29 11:51:18;;;;;;;17.23;16.63;;;23.50;99.90;;;;;;4987437;28;20590;-84
2023/07/29 11:53:47;;;;;;;17.70;17.10;;;23.50;99.90;;;;;;4988058;28;20458;-84
2023/07/29 11:56:21;;;;;;;17.20;16.60;;;23.50;99.90;;;;;;4985774;28;20461;-83
2023/07/29 11:58:51;;;;;;;17.33;16.73;;;23.50;99.90;;;;;;4988462;28;20979;-86
2023/07/29 12:01:23;;;;;;;16.50;16.00;;;23.60;99.90;;;;;;4986494;28;20461;-85
2023/07/29 12:03:52;;;;;;;16.80;16.10;;;23.60;99.90;;;;;;4987938;28;20508;-84
2023/07/29 12:06:25;;;;;;;17.40;16.80;;;23.60;99.90;;;;;;4985083;28;20536;-86
2023/07/29 12:08:57;;;;;;;17.13;16.57;;;23.60;99.90;;;;;;4986627;28;20466;-86
2023/07/29 12:11:28;;;;;;;17.10;16.50;;;23.60;99.90;;;;;;4989597;28;20584;-86
2023/07/29 12:13:57;;;;;;;17.20;16.60;;;23.60;99.90;;;;;;4989594;28;20466;-85
2023/07/29 12:16:25;;;;;;;16.83;16.23;;;23.50;99.90;;;;;;4986917;28;20993;-85
2023/07/29 12:18:54;;;;;;;17.80;17.10;;;23.60;99.90;;;;;;4988763;28;20462;-84
2023/07/29 12:21:24;;;;;;;16.20;15.70;;;23.50;99.90;;;;;;4989570;28;20461;-87
2023/07/29 12:23:52;;;;;;;16.47;15.97;;;23.50;99.90;;;;;;4988215;28;20450;-85
2023/07/29 12:26:20;;;;;;;17.67;17.07;;;23.50;99.90;;;;;;4986194;28;20477;-86
2023/07/29 12:28:50;;;;;;;15.97;15.47;;;23.60;1.00;;;;;;4989081;28;20547;-86
2023/07/29 12:31:45;;;;;;;16.70;16.20;;;23.50;99.90;;;;;;4985817;28;20470;-86
2023/07/29 12:34:21;;;;;;;16.70;16.10;;;23.60;1.00;;;;;;4989119;28;20458;-85
2023/07/29 12:36:52;;;;;;;16.60;16.10;;;23.70;1.00;;;;;;4988420;28;20454;-88
2023/07/29 12:39:25;;;;;;;16.60;16.10;;;23.70;1.00;;;;;;4982637;28;20466;-87
2023/07/29 12:41:55;;;;;;;17.60;16.90;;;23.70;1.00;;;;;;4988576;28;20481;-86
2023/07/29 12:44:34;;;;;;;16.60;16.00;;;23.80;1.00;;;;;;4987175;28;20458;-86
2023/07/29 12:47:08;;;;;;;16.67;16.17;;;23.80;1.00;;;;;;4989173;28;20525;-86
2023/07/29 12:49:56;;;;;;;17.17;16.57;;;23.90;1.00;;;;;;4986565;28;20461;-85
2023/07/29 12:52:40;;;;;;;16.63;16.03;;;23.90;1.00;;;;;;4988832;28;21010;-87
2023/07/29 12:55:13;;;;;;;16.27;15.67;;;23.90;1.00;;;;;;4985020;28;20991;-86
2023/07/29 12:57:45;;;;;;;16.23;15.70;;;23.80;1.00;;;;;;4987516;28;20552;-86
2023/07/29 13:00:17;;;;;;;16.43;15.93;;;23.90;1.00;;;;;;4984685;28;20468;-85
2023/07/29 13:02:49;;;;;;;16.53;15.93;;;24.00;1.00;;;;;;4989129;28;20466;-87
2023/07/29 13:05:21;;;;;;;16.70;16.10;;;23.90;99.90;;;;;;4987551;28;20450;-86
2023/07/29 13:07:49;;;;;;;16.30;15.80;;;24.00;99.90;;;;;;4988374;28;20572;-87
2023/07/29 13:10:34;;;;;;;16.87;16.27;;;24.00;99.90;;;;;;4987732;28;20455;-87
2023/07/29 13:13:09;;;;;;;17.20;16.50;;;24.00;99.90;;;;;;4987607;28;20488;-86
2023/07/29 13:15:37;;;;;;;17.30;16.57;;;24.10;1.00;;;;;;4984621;28;20473;-85